Time;durP1;ratioP1;P1;durP2;ratioP2;P2;SDS_P1;SDS_P2;PMS_P1;PMS_P2;Temp;Humidity;BMP_temperature;BMP_pressure;BME280_temperature;BME280_humidity;BME280_pressure;Samples;Min_cycle;Max_cycle;Signal;HPM_P1;HPM_P2
2022/11/28 00:00:59;;;;;;;;;;;26.20;99.90;;;;;;5074472;28;19987;-73
2022/11/28 00:03:26;;;;;;;;;;;26.60;99.00;;;;;;5075570;28;19913;-74
2022/11/28 00:05:52;;;;;;;;;;;26.80;98.40;;;;;;5074056;28;20321;-73
2022/11/28 00:08:19;;;;;;;;;;;26.90;96.90;;;;;;5073868;28;19920;-71
2022/11/28 00:10:46;;;;;;;;;;;26.50;97.60;;;;;;5073594;28;19960;-72
2022/11/28 00:13:13;;;;;;;;;;;26.20;97.80;;;;;;5060600;28;19951;-72
2022/11/28 00:15:39;;;;;;;;;;;26.30;98.00;;;;;;5072983;28;20333;-72
2022/11/28 00:18:06;;;;;;;;;;;26.70;99.00;;;;;;5072307;28;20286;-74
2022/11/28 00:20:33;;;;;;;;;;;26.90;97.10;;;;;;5071996;28;19999;-73
2022/11/28 00:23:00;;;;;;;;;;;26.50;96.80;;;;;;5070675;28;19920;-74
2022/11/28 00:25:26;;;;;;;;;;;26.30;97.80;;;;;;5068970;28;19924;-74
2022/11/28 00:27:53;;;;;;;;;;;26.30;97.90;;;;;;5072071;28;20351;-72
2022/11/28 00:30:20;;;;;;;;;;;26.80;98.00;;;;;;5073339;28;19952;-74
2022/11/28 00:32:48;;;;;;;;;;;27.00;97.10;;;;;;5073787;28;19919;-73
2022/11/28 00:35:15;;;;;;;;;;;27.00;96.70;;;;;;5052647;28;20337;-74
2022/11/28 00:37:42;;;;;;;;;;;26.80;96.70;;;;;;5072424;28;19939;-74
2022/11/28 00:40:08;;;;;;;;;;;26.90;96.60;;;;;;5073032;28;19970;-73
2022/11/28 00:42:36;;;;;;;;;;;26.90;97.40;;;;;;5059459;28;19917;-73
2022/11/28 00:45:02;;;;;;;;;;;27.30;97.20;;;;;;5053254;28;19970;-73
2022/11/28 00:47:30;;;;;;;;;;;27.80;97.50;;;;;;5066326;28;20445;-74
2022/11/28 00:49:56;;;;;;;;;;;28.20;96.10;;;;;;5069528;28;19921;-74
2022/11/28 00:52:23;;;;;;;;;;;28.70;96.50;;;;;;5073896;28;19954;-74
2022/11/28 00:54:50;;;;;;;;;;;28.80;95.10;;;;;;5071002;28;20248;-73
2022/11/28 00:57:16;;;;;;;;;;;28.50;94.60;;;;;;5069592;28;19916;-75
2022/11/28 00:59:43;;;;;;;;;;;27.90;95.10;;;;;;5072716;28;19970;-74
2022/11/28 01:02:10;;;;;;;;;;;27.40;96.20;;;;;;5069811;28;19913;-74
2022/11/28 01:04:36;;;;;;;;;;;26.90;95.80;;;;;;5067060;28;20389;-74
2022/11/28 01:07:03;;;;;;;;;;;26.60;96.40;;;;;;5059170;28;19916;-74
2022/11/28 01:09:30;;;;;;;;;;;26.50;96.70;;;;;;5071175;28;19959;-77
2022/11/28 01:11:56;;;;;;;;;;;26.30;96.80;;;;;;5050403;28;19928;-75
2022/11/28 01:14:24;;;;;;;;;;;26.20;97.10;;;;;;5070363;28;20031;-75
2022/11/28 01:16:51;;;;;;;;;;;25.90;96.70;;;;;;5070590;28;19962;-76
2022/11/28 01:19:18;;;;;;;;;;;26.20;98.20;;;;;;5069385;28;20406;-76
2022/11/28 01:21:45;;;;;;;;;;;26.30;97.00;;;;;;5071475;28;19950;-73
2022/11/28 01:24:13;;;;;;;;;;;26.10;96.90;;;;;;5070521;28;20279;-73
2022/11/28 01:26:39;;;;;;;;;;;26.00;96.70;;;;;;5070688;28;19912;-74
2022/11/28 01:29:06;;;;;;;;;;;25.80;96.80;;;;;;5068846;28;20009;-74
2022/11/28 01:31:33;;;;;;;;;;;25.70;97.10;;;;;;5050976;28;19935;-74
2022/11/28 01:34:00;;;;;;;;;;;25.80;97.20;;;;;;5069579;28;19917;-74
2022/11/28 01:36:27;;;;;;;;;;;25.80;96.20;;;;;;5067679;28;20005;-73
2022/11/28 01:38:54;;;;;;;;;;;25.50;96.70;;;;;;5073292;28;19939;-73
2022/11/28 01:41:22;;;;;;;;;;;25.40;96.80;;;;;;5072388;28;20371;-73
2022/11/28 01:44:03;;;;;;;;;;;25.40;96.80;;;;;;5071587;28;20010;-73
2022/11/28 01:46:30;;;;;;;;;;;25.70;96.90;;;;;;5070946;28;19916;-75
2022/11/28 01:49:04;;;;;;;;;;;26.70;97.00;;;;;;5070629;28;19958;-75
2022/11/28 01:51:31;;;;;;;;;;;27.70;95.80;;;;;;5070928;28;19912;-73
2022/11/28 01:53:59;;;;;;;;;;;28.50;95.00;;;;;;5068143;28;19962;-73
2022/11/28 01:56:28;;;;;;;;;;;29.20;93.80;;;;;;5066450;28;19922;-73
2022/11/28 01:58:57;;;;;;;;;;;29.60;92.90;;;;;;5071932;28;20043;-73
2022/11/28 02:01:26;;;;;;;;;;;29.50;91.90;;;;;;5070279;28;19935;-73
2022/11/28 02:03:53;;;;;;;;;;;29.40;92.50;;;;;;5071385;28;19974;-75
2022/11/28 02:06:22;;;;;;;;;;;29.50;92.30;;;;;;5071310;28;19916;-75
2022/11/28 02:08:53;;;;;;;;;;;29.70;92.00;;;;;;5061135;28;20003;-76
2022/11/28 02:11:19;;;;;;;;;;;29.70;91.70;;;;;;5067885;28;19920;-72
2022/11/28 02:14:06;;;;;;;;;;;29.60;91.10;;;;;;5070430;28;19952;-77
2022/11/28 02:16:36;;;;;;;;;;;29.30;91.50;;;;;;5010819;28;19959;-75
2022/11/28 02:19:05;;;;;;;;;;;29.30;90.60;;;;;;5064882;28;19919;-73
2022/11/28 02:21:38;;;;;;;;;;;29.10;90.30;;;;;;5070790;28;19916;-73
2022/11/28 02:24:23;;;;;;;;;;;29.00;90.20;;;;;;5069196;28;19916;-74
2022/11/28 02:26:53;;;;;;;;;;;29.30;90.90;;;;;;5068223;28;20422;-73
2022/11/28 02:29:28;;;;;;;;;;;29.90;91.40;;;;;;5062060;28;20322;-75
2022/11/28 02:32:33;;;;;;;;;;;30.60;91.30;;;;;;5069831;28;20027;-75
2022/11/28 02:35:15;;;;;;;;;;;30.60;90.20;;;;;;4981838;28;19922;-74
2022/11/28 02:37:44;;;;;;;;;;;29.80;90.40;;;;;;4989828;28;19914;-74
2022/11/28 02:40:11;;;;;;;;;;;29.60;90.70;;;;;;5041796;28;19935;-75
2022/11/28 02:42:53;;;;;;;;;;;30.00;90.70;;;;;;5075480;28;19916;-74
2022/11/28 02:45:32;;;;;;;;;;;30.30;90.20;;;;;;5070840;28;19916;-71
2022/11/28 02:48:03;;;;;;;;;;;30.70;89.10;;;;;;5076027;28;19908;-73
2022/11/28 02:50:34;;;;;;;;;;;31.10;89.80;;;;;;5072229;28;19982;-76
2022/11/28 02:53:11;;;;;;;;;;;31.00;87.50;;;;;;5074411;28;19912;-74
2022/11/28 02:55:42;;;;;;;;;;;30.50;88.90;;;;;;5072720;28;19936;-76
2022/11/28 02:58:10;;;;;;;;;;;30.10;90.20;;;;;;5072468;28;19958;-73
2022/11/28 03:00:38;;;;;;;;;;;29.70;90.30;;;;;;5069733;28;20735;-74
2022/11/28 03:03:14;;;;;;;;;;;29.30;90.70;;;;;;5070587;28;19966;-74
2022/11/28 03:05:44;;;;;;;;;;;28.90;91.50;;;;;;5067808;28;20015;-73
2022/11/28 03:08:16;;;;;;;;;;;28.70;91.60;;;;;;5091601;28;19913;-70
2022/11/28 03:10:55;;;;;;;;;;;28.50;91.90;;;;;;5080419;28;19920;-72
2022/11/28 03:13:22;;;;;;;;;;;28.30;92.10;;;;;;5084433;28;19951;-72
2022/11/28 03:16:08;;;;;;;;;;;28.80;91.80;;;;;;5075902;28;19920;-74
2022/11/28 03:18:38;;;;;;;;;;;29.20;91.40;;;;;;5073425;28;20416;-74
2022/11/28 03:21:11;;;;;;;;;;;29.70;92.50;;;;;;5072696;28;19960;-75
2022/11/28 03:23:38;;;;;;;;;;;30.20;91.60;;;;;;5073124;28;20003;-74
2022/11/28 03:26:12;;;;;;;;;;;30.50;91.60;;;;;;5073626;28;19920;-77
2022/11/28 03:28:45;;;;;;;;;;;30.90;90.80;;;;;;5073336;28;19952;-76
2022/11/28 03:31:17;;;;;;;;;;;31.00;90.40;;;;;;5074585;28;19912;-74
2022/11/28 03:33:46;;;;;;;;;;;31.20;90.10;;;;;;5069419;28;20007;-73
2022/11/28 03:36:18;;;;;;;;;;;31.30;88.60;;;;;;5073326;28;19944;-73
2022/11/28 03:38:48;;;;;;;;;;;31.60;88.30;;;;;;5074782;28;19919;-75
2022/11/28 03:41:35;;;;;;;;;;;31.80;87.20;;;;;;5073732;28;19912;-74
2022/11/28 03:44:01;;;;;;;;;;;31.40;89.40;;;;;;5040984;28;19913;-74
2022/11/28 03:46:36;;;;;;;;;;;30.90;89.50;;;;;;5073836;28;20370;-75
2022/11/28 03:49:04;;;;;;;;;;;30.30;90.40;;;;;;5073022;28;19919;-73
2022/11/28 03:51:37;;;;;;;;;;;29.50;91.00;;;;;;5072715;28;19912;-72
2022/11/28 03:54:27;;;;;;;;;;;28.60;91.80;;;;;;5071481;28;19952;-73
2022/11/28 03:57:12;;;;;;;;;;;28.10;92.30;;;;;;5071404;28;19917;-72
2022/11/28 03:59:49;;;;;;;;;;;27.60;92.50;;;;;;5073703;28;19913;-74
2022/11/28 04:02:22;;;;;;;;;;;27.90;92.60;;;;;;5072067;28;19912;-75
2022/11/28 04:04:54;;;;;;;;;;;28.10;93.10;;;;;;5072297;28;20389;-74
2022/11/28 04:07:25;;;;;;;;;;;28.20;92.60;;;;;;5071381;28;19919;-73
2022/11/28 04:09:59;;;;;;;;;;;28.20;92.80;;;;;;5054370;28;19912;-72
2022/11/28 04:12:32;;;;;;;;;;;27.70;92.50;;;;;;5073509;28;20251;-74
2022/11/28 04:15:24;;;;;;;;;;;27.10;93.20;;;;;;5073272;28;19924;-71
2022/11/28 04:17:58;;;;;;;;;;;26.90;93.80;;;;;;5034539;28;19919;-72
2022/11/28 04:20:29;;;;;;;;;;;26.70;94.00;;;;;;5071771;28;20433;-72
2022/11/28 04:22:59;;;;;;;;;;;26.70;94.30;;;;;;5073143;28;19913;-76
2022/11/28 04:25:27;;;;;;;;;;;26.70;93.80;;;;;;5071536;28;19920;-72
2022/11/28 04:27:57;;;;;;;;;;;26.90;93.90;;;;;;5057544;28;19916;-73
2022/11/28 04:30:24;;;;;;;;;;;26.80;94.10;;;;;;5073193;28;20005;-74
2022/11/28 04:32:55;;;;;;;;;;;27.00;94.00;;;;;;5074031;28;19979;-77
2022/11/28 04:35:37;;;;;;;;;;;27.00;93.50;;;;;;5070290;28;19920;-76
2022/11/28 04:38:04;;;;;;;;;;;27.10;93.30;;;;;;5072226;28;19923;-76
2022/11/28 04:40:34;;;;;;;;;;;27.20;93.40;;;;;;5069980;28;19912;-75
2022/11/28 04:43:03;;;;;;;;;;;26.90;93.50;;;;;;5069359;28;19919;-74
2022/11/28 04:45:42;;;;;;;;;;;26.50;94.10;;;;;;5073049;28;19920;-72
2022/11/28 04:48:09;;;;;;;;;;;26.40;94.30;;;;;;5066818;28;19927;-72
2022/11/28 04:50:49;;;;;;;;;;;26.50;94.10;;;;;;5072263;28;19966;-75
2022/11/28 04:53:20;;;;;;;;;;;26.50;94.10;;;;;;5073239;28;19909;-74
2022/11/28 04:55:48;;;;;;;;;;;26.60;94.30;;;;;;5070310;28;19959;-73
2022/11/28 04:58:17;;;;;;;;;;;26.60;93.90;;;;;;5067765;28;20039;-72
2022/11/28 05:00:45;;;;;;;;;;;26.30;94.10;;;;;;5068795;28;19918;-73
2022/11/28 05:03:11;;;;;;;;;;;26.00;94.40;;;;;;5072368;28;19909;-73
2022/11/28 05:05:43;;;;;;;;;;;25.90;94.60;;;;;;5072233;28;19970;-71
2022/11/28 05:08:10;;;;;;;;;;;26.10;94.70;;;;;;5071790;28;19912;-71
2022/11/28 05:10:37;;;;;;;;;;;26.30;94.10;;;;;;5071257;28;19951;-71
2022/11/28 05:13:07;;;;;;;;;;;26.30;94.30;;;;;;5071873;28;20235;-74
2022/11/28 05:15:34;;;;;;;;;;;26.20;94.40;;;;;;5068650;28;19924;-73
2022/11/28 05:18:01;;;;;;;;;;;26.10;95.00;;;;;;5058397;28;20366;-74
2022/11/28 05:20:28;;;;;;;;;;;26.10;94.80;;;;;;5071143;28;19917;-73
2022/11/28 05:22:55;;;;;;;;;;;26.30;94.80;;;;;;5072409;28;19999;-74
2022/11/28 05:25:21;;;;;;;;;;;26.40;94.30;;;;;;5071541;28;20481;-74
2022/11/28 05:27:48;;;;;;;;;;;26.40;94.10;;;;;;5071479;28;19916;-75
2022/11/28 05:30:15;;;;;;;;;;;26.40;94.20;;;;;;5070403;28;19920;-76
2022/11/28 05:32:42;;;;;;;;;;;26.40;94.10;;;;;;5072264;28;20283;-74
2022/11/28 05:35:09;;;;;;;;;;;26.30;94.20;;;;;;5063867;28;19933;-74
2022/11/28 05:37:36;;;;;;;;;;;26.20;94.20;;;;;;5067728;28;19916;-74
2022/11/28 05:40:03;;;;;;;;;;;26.10;94.70;;;;;;5069111;28;19974;-74
2022/11/28 05:42:33;;;;;;;;;;;26.20;94.30;;;;;;5069185;28;20363;-74
2022/11/28 05:45:00;;;;;;;;;;;26.20;94.20;;;;;;5066684;28;19967;-74
2022/11/28 05:47:29;;;;;;;;;;;26.20;94.50;;;;;;5052349;28;19948;-75
2022/11/28 05:49:56;;;;;;;;;;;26.20;94.50;;;;;;5060474;28;20575;-73
2022/11/28 05:52:22;;;;;;;;;;;26.20;94.20;;;;;;5071828;28;19909;-76
2022/11/28 05:54:49;;;;;;;;;;;26.10;94.00;;;;;;5071698;28;19960;-72
2022/11/28 05:57:16;;;;;;;;;;;25.90;94.40;;;;;;5070600;28;19921;-72
2022/11/28 05:59:42;;;;;;;;;;;25.80;94.40;;;;;;5069113;28;20382;-74
2022/11/28 06:02:10;;;;;;;;;;;25.70;94.60;;;;;;5069020;28;19948;-69
2022/11/28 06:04:40;;;;;;;;;;;25.70;94.70;;;;;;5064759;28;20144;-73
2022/11/28 06:07:07;;;;;;;;;;;25.80;94.60;;;;;;5066249;28;19916;-74
2022/11/28 06:09:34;;;;;;;;;;;25.80;94.40;;;;;;5066332;28;20304;-74
2022/11/28 06:12:01;;;;;;;;;;;25.70;94.50;;;;;;5054452;28;19924;-74
2022/11/28 06:14:28;;;;;;;;;;;25.70;94.80;;;;;;5067215;28;19931;-73
2022/11/28 06:16:55;;;;;;;;;;;25.80;94.50;;;;;;5071784;28;20321;-77
2022/11/28 06:19:21;;;;;;;;;;;25.80;94.20;;;;;;5070888;28;19915;-71
2022/11/28 06:21:50;;;;;;;;;;;25.60;94.40;;;;;;5063314;28;19920;-74
2022/11/28 06:24:17;;;;;;;;;;;25.50;94.80;;;;;;5064579;28;20355;-72
2022/11/28 06:26:44;;;;;;;;;;;25.40;94.90;;;;;;5067806;28;19919;-75
2022/11/28 06:29:10;;;;;;;;;;;25.50;94.80;;;;;;5068771;28;19916;-74
2022/11/28 06:31:37;;;;;;;;;;;25.50;94.40;;;;;;5063678;28;20023;-74
2022/11/28 06:34:04;;;;;;;;;;;25.50;94.60;;;;;;5068210;28;20431;-74
2022/11/28 06:36:31;;;;;;;;;;;25.50;94.50;;;;;;5063843;28;20039;-74
2022/11/28 06:38:57;;;;;;;;;;;25.40;94.60;;;;;;5049940;28;19939;-72
2022/11/28 06:41:24;;;;;;;;;;;25.30;94.60;;;;;;5065942;28;19912;-71
2022/11/28 06:43:51;;;;;;;;;;;25.20;94.80;;;;;;5061595;28;19927;-73
2022/11/28 06:46:19;;;;;;;;;;;25.20;94.90;;;;;;5067528;28;20259;-71
2022/11/28 06:48:48;;;;;;;;;;;25.20;94.90;;;;;;5062465;28;19916;-73
2022/11/28 06:51:15;;;;;;;;;;;25.00;95.10;;;;;;5065247;28;19956;-75
2022/11/28 06:53:42;;;;;;;;;;;25.10;95.10;;;;;;5067274;28;19916;-74
2022/11/28 06:56:10;;;;;;;;;;;25.00;95.10;;;;;;5056322;28;20139;-73
2022/11/28 06:58:38;;;;;;;;;;;24.80;95.10;;;;;;5069224;28;20015;-73
2022/11/28 07:01:06;;;;;;;;;;;24.70;95.40;;;;;;5061140;28;19990;-74
2022/11/28 07:03:32;;;;;;;;;;;24.60;95.50;;;;;;5064669;28;20595;-75
2022/11/28 07:06:03;;;;;;;;;;;24.60;95.50;;;;;;5071558;28;20422;-72
2022/11/28 07:08:30;;;;;;;;;;;24.60;95.50;;;;;;5085802;28;19909;-70
2022/11/28 07:11:06;;;;;;;;;;;24.60;95.60;;;;;;5076513;28;19980;-73
2022/11/28 07:13:33;;;;;;;;;;;24.50;95.50;;;;;;5075511;28;19927;-73
2022/11/28 07:15:59;;;;;;;;;;;24.50;95.50;;;;;;5069448;28;19927;-74
2022/11/28 07:18:26;;;;;;;;;;;24.40;95.60;;;;;;5067276;28;19916;-73
2022/11/28 07:20:53;;;;;;;;;;;24.40;95.60;;;;;;5068506;28;19912;-73
2022/11/28 07:23:20;;;;;;;;;;;24.30;95.80;;;;;;5040251;28;19919;-73
2022/11/28 07:25:46;;;;;;;;;;;24.30;95.80;;;;;;5060725;28;19909;-73
2022/11/28 07:28:13;;;;;;;;;;;24.20;96.00;;;;;;5072968;28;20290;-73
2022/11/28 07:30:40;;;;;;;;;;;24.10;95.90;;;;;;5074526;28;19909;-73
2022/11/28 07:33:07;;;;;;;;;;;24.10;96.10;;;;;;5066881;28;19916;-73
2022/11/28 07:35:33;;;;;;;;;;;24.00;96.20;;;;;;5066477;28;19932;-74
2022/11/28 07:38:00;;;;;;;;;;;23.90;96.40;;;;;;5075005;28;20019;-74
2022/11/28 07:40:27;;;;;;;;;;;23.80;96.40;;;;;;5067986;28;19912;-73
2022/11/28 07:42:53;;;;;;;;;;;23.80;96.60;;;;;;5074670;28;19916;-71
2022/11/28 07:45:20;;;;;;;;;;;23.70;96.70;;;;;;5071879;28;20359;-72
2022/11/28 07:47:47;;;;;;;;;;;23.60;96.80;;;;;;5075009;28;20023;-72
2022/11/28 07:50:14;;;;;;;;;;;23.60;97.00;;;;;;5071258;28;19939;-72
2022/11/28 07:52:40;;;;;;;;;;;23.50;97.00;;;;;;5062271;28;19919;-73
2022/11/28 07:55:07;;;;;;;;;;;23.40;97.30;;;;;;5074555;28;20019;-75
2022/11/28 07:57:34;;;;;;;;;;;23.30;97.40;;;;;;5063938;28;19951;-74
2022/11/28 08:00:01;;;;;;;;;;;23.20;97.60;;;;;;5073992;28;20283;-75
2022/11/28 08:02:31;;;;;;;;;;;23.00;97.80;;;;;;5074605;28;19967;-74
2022/11/28 08:04:58;;;;;;;;;;;22.90;98.00;;;;;;5072037;28;19912;-74
2022/11/28 08:07:25;;;;;;;;;;;22.90;98.10;;;;;;5068491;28;19924;-73
2022/11/28 08:09:52;;;;;;;;;;;22.90;98.10;;;;;;5055062;28;19909;-74
2022/11/28 08:12:18;;;;;;;;;;;22.80;98.20;;;;;;5073836;28;20005;-73
2022/11/28 08:14:45;;;;;;;;;;;22.70;98.40;;;;;;5064768;28;19927;-73
2022/11/28 08:17:12;;;;;;;;;;;22.70;98.50;;;;;;5073680;28;20260;-73
2022/11/28 08:19:39;;;;;;;;;;;22.60;98.80;;;;;;5072658;28;19916;-72
2022/11/28 08:22:05;;;;;;;;;;;22.60;98.80;;;;;;5073155;28;20359;-71
2022/11/28 08:24:32;;;;;;;;;;;22.50;99.00;;;;;;5067315;28;19909;-72
2022/11/28 08:26:59;;;;;;;;;;;22.40;99.10;;;;;;5072586;28;19913;-71
2022/11/28 08:29:25;;;;;;;;;;;22.30;99.40;;;;;;5072800;28;19912;-71
2022/11/28 08:31:52;;;;;;;;;;;22.30;99.70;;;;;;5056874;28;19919;-73
2022/11/28 08:34:19;;;;;;;;;;;22.20;99.60;;;;;;5060112;28;20387;-74
2022/11/28 08:36:47;;;;;;;;;;;22.10;99.90;;;;;;5068111;28;19916;-73
2022/11/28 08:39:14;;;;;;;;;;;22.10;99.90;;;;;;5054548;28;19979;-72
2022/11/28 08:41:41;;;;;;;;;;;22.10;99.90;;;;;;5072359;28;19957;-74
2022/11/28 08:44:08;;;;;;;;;;;22.00;99.90;;;;;;5073220;28;20378;-74
2022/11/28 08:46:35;;;;;;;;;;;21.90;99.90;;;;;;5073460;28;19912;-72
2022/11/28 08:49:02;;;;;;;;;;;21.90;99.90;;;;;;5069974;28;19912;-72
2022/11/28 08:51:29;;;;;;;;;;;21.80;99.90;;;;;;5072740;28;19908;-76
2022/11/28 08:53:56;;;;;;;;;;;21.70;99.90;;;;;;5071355;28;19965;-74
2022/11/28 08:56:22;;;;;;;;;;;21.60;99.90;;;;;;5070115;28;19981;-74
2022/11/28 08:58:49;;;;;;;;;;;21.60;99.90;;;;;;5064822;28;19983;-72
2022/11/28 09:01:23;;;;;;;;;;;21.40;99.90;;;;;;5061478;28;19920;-72
2022/11/28 09:03:49;;;;;;;;;;;21.30;99.90;;;;;;5053217;28;19908;-70
2022/11/28 09:06:19;;;;;;;;;;;21.30;99.90;;;;;;5068767;28;19913;-72
2022/11/28 09:08:46;;;;;;;;;;;21.20;99.90;;;;;;5071393;28;19913;-74
2022/11/28 09:11:16;;;;;;;;;;;21.10;99.90;;;;;;5070494;28;20311;-72
2022/11/28 09:13:42;;;;;;;;;;;21.00;99.90;;;;;;5067213;28;20114;-73
2022/11/28 09:16:09;;;;;;;;;;;21.00;99.90;;;;;;5067026;28;20338;-73
2022/11/28 09:18:36;;;;;;;;;;;21.00;99.90;;;;;;5053182;28;19999;-72
2022/11/28 09:21:06;;;;;;;;;;;21.00;99.90;;;;;;5061838;28;19913;-73
2022/11/28 09:23:32;;;;;;;;;;;20.90;99.90;;;;;;5066934;28;19912;-72
2022/11/28 09:25:59;;;;;;;;;;;20.90;99.90;;;;;;5061740;28;19913;-72
2022/11/28 09:28:27;;;;;;;;;;;20.80;99.90;;;;;;5052781;28;19915;-70
2022/11/28 09:31:01;;;;;;;;;;;20.70;99.90;;;;;;5065726;28;19912;-72
2022/11/28 09:33:28;;;;;;;;;;;20.60;99.90;;;;;;5065006;28;19945;-71
2022/11/28 09:35:55;;;;;;;;;;;20.50;99.90;;;;;;5058519;28;19940;-72
2022/11/28 09:38:22;;;;;;;;;;;20.50;99.90;;;;;;5071062;28;19920;-71
2022/11/28 09:40:48;;;;;;;;;;;20.40;99.90;;;;;;5070572;28;19912;-72
2022/11/28 09:43:23;;;;;;;;;;;20.30;99.90;;;;;;5072512;28;19962;-71
2022/11/28 09:45:52;;;;;;;;;;;20.10;99.90;;;;;;5070349;28;19913;-72
2022/11/28 09:48:21;;;;;;;;;;;20.00;99.90;;;;;;5071078;28;20354;-72
2022/11/28 09:50:50;;;;;;;;;;;20.10;99.90;;;;;;5070027;28;20022;-72
2022/11/28 09:53:23;;;;;;;;;;;20.10;99.90;;;;;;5070670;28;19921;-73
2022/11/28 09:55:52;;;;;;;;;;;20.10;99.90;;;;;;5055213;28;19921;-73
2022/11/28 09:58:24;;;;;;;;;;;20.10;99.90;;;;;;5068564;28;19915;-73
2022/11/28 10:00:55;;;;;;;;;;;20.00;99.90;;;;;;5072132;28;19912;-73
2022/11/28 10:03:34;;;;;;;;;;;20.00;99.90;;;;;;5070911;28;20014;-73
2022/11/28 10:06:01;;;;;;;;;;;19.90;99.90;;;;;;5070592;28;20313;-73
2022/11/28 10:08:43;;;;;;;;;;;19.80;99.90;;;;;;5070934;28;19920;-73
2022/11/28 10:11:12;;;;;;;;;;;19.80;99.90;;;;;;5071474;28;20374;-73
2022/11/28 10:13:50;;;;;;;;;;;19.70;99.90;;;;;;5057349;28;19912;-72
2022/11/28 10:16:35;;;;;;;;;;;19.70;99.90;;;;;;5066917;28;19920;-73
2022/11/28 10:19:05;;;;;;;;;;;19.70;99.90;;;;;;5071475;28;19920;-73
2022/11/28 10:21:52;;;;;;;;;;;19.70;99.90;;;;;;5070981;28;19995;-72
2022/11/28 10:24:21;;;;;;;;;;;19.80;99.90;;;;;;5071142;28;19909;-72
2022/11/28 10:26:53;;;;;;;;;;;19.80;99.90;;;;;;5070422;28;19926;-73
2022/11/28 10:29:31;;;;;;;;;;;19.90;99.90;;;;;;5060564;28;19919;-72
2022/11/28 10:32:00;;;;;;;;;;;20.10;99.90;;;;;;5054617;28;19916;-74
2022/11/28 10:34:40;;;;;;;;;;;20.10;99.90;;;;;;5060499;28;19999;-74
2022/11/28 10:37:13;;;;;;;;;;;20.20;99.90;;;;;;5070485;28;20278;-73
2022/11/28 10:39:42;;;;;;;;;;;20.30;99.90;;;;;;5055025;28;19917;-76
2022/11/28 10:42:18;;;;;;;;;;;20.40;99.90;;;;;;5068392;28;20271;-75
2022/11/28 10:44:50;;;;;;;;;;;20.30;99.90;;;;;;5070147;28;19923;-74
2022/11/28 10:47:33;;;;;;;;;;;20.30;99.90;;;;;;5067384;28;19951;-72
2022/11/28 10:50:03;;;;;;;;;;;20.30;99.90;;;;;;5055849;28;20409;-74
2022/11/28 10:52:34;;;;;;;;;;;20.30;99.90;;;;;;5062046;28;19970;-75
2022/11/28 10:55:19;;;;;;;;;;;20.30;99.90;;;;;;5062744;28;19922;-75
2022/11/28 10:57:46;;;;;;;;;;;20.30;99.90;;;;;;5064267;28;19920;-74
2022/11/28 11:00:12;;;;;;;;;;;20.30;99.90;;;;;;5057861;28;19912;-70
2022/11/28 11:02:47;;;;;;;;;;;20.40;99.90;;;;;;5067163;28;19921;-72
2022/11/28 11:05:15;;;;;;;;;;;20.40;99.90;;;;;;5062035;28;19912;-74
2022/11/28 11:07:52;;;;;;;;;;;20.50;99.90;;;;;;5074791;28;19912;-73
2022/11/28 11:10:22;;;;;;;;;;;20.50;99.90;;;;;;5073648;28;21711;-80
2022/11/28 11:12:52;;;;;;;;;;;20.50;99.90;;;;;;5085820;28;20004;-73
2022/11/28 11:15:20;;;;;;;;;;;20.50;99.90;;;;;;5088482;28;19938;-71
2022/11/28 11:17:49;;;;;;;;;;;20.40;99.90;;;;;;5086064;28;20371;-74
2022/11/28 11:20:22;;;;;;;;;;;20.20;99.90;;;;;;5073866;28;19921;-75
2022/11/28 11:22:56;;;;;;;;;;;20.20;99.90;;;;;;5072823;28;19952;-74
2022/11/28 11:25:24;;;;;;;;;;;20.10;99.90;;;;;;5073799;28;19908;-75
2022/11/28 11:27:59;;;;;;;;;;;20.10;99.90;;;;;;5072929;28;20026;-75
2022/11/28 11:30:41;;;;;;;;;;;20.00;99.90;;;;;;5074444;28;19965;-74
2022/11/28 11:33:17;;;;;;;;;;;20.10;99.90;;;;;;5074259;28;19969;-75
2022/11/28 11:35:45;;;;;;;;;;;20.10;99.90;;;;;;5074913;28;20367;-73
2022/11/28 11:38:27;;;;;;;;;;;20.00;99.90;;;;;;5073936;28;19950;-75
2022/11/28 11:40:54;;;;;;;;;;;20.00;99.90;;;;;;5055807;28;20359;-75
2022/11/28 11:43:36;;;;;;;;;;;19.90;99.90;;;;;;5074531;28;19912;-72
2022/11/28 11:46:13;;;;;;;;;;;19.90;99.90;;;;;;5074429;28;20359;-74
2022/11/28 11:48:41;;;;;;;;;;;19.80;99.90;;;;;;5066863;28;19940;-76
2022/11/28 11:51:27;;;;;;;;;;;19.80;99.90;;;;;;5064290;28;19943;-75
2022/11/28 11:54:13;;;;;;;;;;;19.80;99.90;;;;;;5074393;28;19916;-73
2022/11/28 11:56:42;;;;;;;;;;;19.80;99.90;;;;;;5073961;28;19967;-74
2022/11/28 11:59:34;;;;;;;;;;;19.80;99.90;;;;;;5074838;28;20370;-76
2022/11/28 12:02:33;;;;;;;;;;;19.80;99.90;;;;;;5069372;28;19912;-74
2022/11/28 12:05:11;;;;;;;;;;;19.70;99.90;;;;;;5049209;28;19916;-75
2022/11/28 12:07:38;;;;;;;;;;;19.70;99.90;;;;;;5073578;28;20357;-74
2022/11/28 12:10:06;;;;;;;;;;;19.80;99.90;;;;;;5073856;28;20287;-75
2022/11/28 12:12:35;;;;;;;;;;;19.80;99.90;;;;;;5067839;28;19924;-75
2022/11/28 12:15:02;;;;;;;;;;;19.80;99.90;;;;;;5068689;28;19921;-74
2022/11/28 12:17:35;;;;;;;;;;;19.80;99.90;;;;;;5061977;28;19913;-75
2022/11/28 12:20:22;;;;;;;;;;;19.80;99.90;;;;;;5070539;28;19920;-75
2022/11/28 12:23:21;;;;;;;;;;;19.80;99.90;;;;;;5065449;28;19920;-74
2022/11/28 12:25:50;;;;;;;;;;;19.70;99.90;;;;;;5013953;28;20419;-73
2022/11/28 12:28:35;;;;;;;;;;;19.60;99.90;;;;;;5069973;28;19919;-75
2022/11/28 12:31:15;;;;;;;;;;;19.50;99.90;;;;;;5068909;28;19912;-75
2022/11/28 12:33:54;;;;;;;;;;;19.40;99.90;;;;;;5063094;28;19920;-75
2022/11/28 12:36:45;;;;;;;;;;;19.30;99.90;;;;;;5071580;28;19970;-75
2022/11/28 12:39:30;;;;;;;;;;;19.20;99.90;;;;;;5013455;28;19916;-76
2022/11/28 12:42:04;;;;;;;;;;;19.00;99.90;;;;;;5062469;28;21911;-74
2022/11/28 12:44:49;;;;;;;;;;;18.80;99.90;;;;;;5062674;28;20715;-74
2022/11/28 12:47:22;;;;;;;;;;;18.70;99.90;;;;;;5070296;28;20433;-74
2022/11/28 12:50:04;;;;;;;;;;;18.60;99.90;;;;;;5070446;28;19935;-74
2022/11/28 12:52:30;;;;;;;;;;;18.60;99.90;;;;;;5062669;28;19939;-74
2022/11/28 12:55:00;;;;;;;;;;;18.50;99.90;;;;;;5071005;28;19920;-74
2022/11/28 12:57:26;;;;;;;;;;;18.40;99.90;;;;;;5070660;28;19925;-74
2022/11/28 13:00:03;;;;;;;;;;;18.40;99.90;;;;;;5065533;28;19919;-72
2022/11/28 13:02:38;;;;;;;;;;;18.30;99.90;;;;;;5071651;28;19916;-73
2022/11/28 13:05:05;;;;;;;;;;;18.20;99.90;;;;;;5068097;28;19955;-72
2022/11/28 13:07:50;;;;;;;;;;;18.20;99.90;;;;;;5069130;28;19916;-72
2022/11/28 13:10:21;;;;;;;;;;;18.10;99.90;;;;;;5066324;28;19916;-72
2022/11/28 13:12:58;;;;;;;;;;;18.10;99.90;;;;;;5064605;28;19931;-74
2022/11/28 13:15:27;;;;;;;;;;;18.10;99.90;;;;;;5061172;28;20371;-74
2022/11/28 13:18:09;;;;;;;;;;;18.10;99.90;;;;;;5064820;28;20029;-76
2022/11/28 13:20:45;;;;;;;;;;;18.20;99.90;;;;;;5058924;28;19924;-75
2022/11/28 13:23:28;;;;;;;;;;;18.30;99.90;;;;;;5063814;28;19924;-74
2022/11/28 13:26:00;;;;;;;;;;;18.40;99.90;;;;;;5070024;28;19913;-75
2022/11/28 13:28:34;;;;;;;;;;;18.50;99.90;;;;;;5071535;28;19912;-74
2022/11/28 13:31:07;;;;;;;;;;;18.60;99.90;;;;;;5060296;28;19917;-75
2022/11/28 13:33:37;;;;;;;;;;;18.70;99.90;;;;;;5065700;28;19912;-76
2022/11/28 13:36:05;;;;;;;;;;;18.80;99.90;;;;;;5068851;28;19927;-75
2022/11/28 13:38:44;;;;;;;;;;;18.90;99.90;;;;;;5070635;28;20278;-76
2022/11/28 13:41:14;;;;;;;;;;;18.90;99.90;;;;;;5068812;28;20298;-75
2022/11/28 13:43:51;;;;;;;;;;;19.00;99.90;;;;;;5065224;28;19923;-75
2022/11/28 13:46:18;;;;;;;;;;;19.10;99.90;;;;;;5061882;28;20425;-74
2022/11/28 13:48:47;;;;;;;;;;;19.10;99.90;;;;;;5063145;28;19947;-75
2022/11/28 13:51:16;;;;;;;;;;;19.10;99.90;;;;;;5068341;28;19995;-74
2022/11/28 13:53:44;;;;;;;;;;;19.10;99.90;;;;;;5059890;28;19920;-73
2022/11/28 13:56:11;;;;;;;;;;;19.10;99.90;;;;;;5066779;28;19986;-74
2022/11/28 13:58:41;;;;;;;;;;;19.10;99.90;;;;;;5065396;28;20294;-74
2022/11/28 14:01:12;;;;;;;;;;;19.10;99.90;;;;;;5063942;28;19916;-73
2022/11/28 14:03:44;;;;;;;;;;;19.00;99.90;;;;;;5066225;28;19965;-72
2022/11/28 14:06:12;;;;;;;;;;;18.90;99.90;;;;;;5067230;28;19917;-75
2022/11/28 14:08:41;;;;;;;;;;;18.80;99.90;;;;;;5069251;28;19953;-74
2022/11/28 14:11:29;;;;;;;;;;;18.70;99.90;;;;;;5064083;28;19927;-73
2022/11/28 14:13:58;;;;;;;;;;;18.60;99.90;;;;;;5067851;28;20264;-74
2022/11/28 14:16:33;;;;;;;;;;;18.50;99.90;;;;;;5068126;28;20363;-74
2022/11/28 14:18:59;;;;;;;;;;;18.40;99.90;;;;;;5069442;28;19921;-77
2022/11/28 14:21:29;;;;;;;;;;;18.30;99.90;;;;;;5066883;28;19927;-73
2022/11/28 14:23:59;;;;;;;;;;;18.20;99.90;;;;;;5068447;28;19912;-72
2022/11/28 14:26:33;;;;;;;;;;;18.20;99.90;;;;;;5069213;28;20263;-72
2022/11/28 14:29:00;;;;;;;;;;;18.10;99.90;;;;;;5068902;28;20019;-73
2022/11/28 14:31:32;;;;;;;;;;;18.10;99.90;;;;;;5070744;28;19916;-74
2022/11/28 14:34:31;;;;;;;;;;;18.10;99.90;;;;;;5066027;28;20003;-74
2022/11/28 14:37:36;;;;;;;;;;;18.10;99.90;;;;;;4995715;28;19936;-73